sensor_id;sensor_type;location;lat;lon;timestamp;P1;durP1;ratioP1;P2;durP2;ratioP2
12567;SDS011;6349;50.904;6.136;2022-07-22T00:01:59;7.40;;;5.15;;
12567;SDS011;6349;50.904;6.136;2022-07-22T00:03:59;7.50;;;4.88;;
12567;SDS011;6349;50.904;6.136;2022-07-22T00:06:01;8.05;;;4.68;;
12567;SDS011;6349;50.904;6.136;2022-07-22T00:08:02;9.30;;;4.35;;
12567;SDS011;6349;50.904;6.136;2022-07-22T00:10:04;6.27;;;4.33;;
12567;SDS011;6349;50.904;6.136;2022-07-22T00:12:07;6.35;;;4.72;;
12567;SDS011;6349;50.904;6.136;2022-07-22T00:14:08;6.18;;;4.35;;
12567;SDS011;6349;50.904;6.136;2022-07-22T00:16:09;7.03;;;4.53;;
12567;SDS011;6349;50.904;6.136;2022-07-22T00:18:09;8.02;;;4.43;;
12567;SDS011;6349;50.904;6.136;2022-07-22T00:20:10;8.90;;;4.30;;
12567;SDS011;6349;50.904;6.136;2022-07-22T00:22:11;6.28;;;4.10;;
12567;SDS011;6349;50.904;6.136;2022-07-22T00:24:11;7.82;;;4.00;;
12567;SDS011;6349;50.904;6.136;2022-07-22T00:26:12;6.13;;;4.20;;
12567;SDS011;6349;50.904;6.136;2022-07-22T00:28:12;6.38;;;4.45;;
12567;SDS011;6349;50.904;6.136;2022-07-22T00:30:13;6.93;;;4.03;;
12567;SDS011;6349;50.904;6.136;2022-07-22T00:32:14;7.65;;;4.47;;
12567;SDS011;6349;50.904;6.136;2022-07-22T00:34:14;5.03;;;4.15;;
12567;SDS011;6349;50.904;6.136;2022-07-22T00:36:15;8.68;;;4.32;;
12567;SDS011;6349;50.904;6.136;2022-07-22T00:38:16;7.20;;;4.10;;
12567;SDS011;6349;50.904;6.136;2022-07-22T00:40:16;9.27;;;4.25;;
12567;SDS011;6349;50.904;6.136;2022-07-22T00:42:17;8.13;;;4.00;;
12567;SDS011;6349;50.904;6.136;2022-07-22T00:44:18;7.97;;;4.50;;
12567;SDS011;6349;50.904;6.136;2022-07-22T00:46:18;5.05;;;4.03;;
12567;SDS011;6349;50.904;6.136;2022-07-22T00:48:19;5.38;;;3.90;;
12567;SDS011;6349;50.904;6.136;2022-07-22T00:50:20;7.00;;;3.92;;
12567;SDS011;6349;50.904;6.136;2022-07-22T00:52:21;5.78;;;3.83;;
12567;SDS011;6349;50.904;6.136;2022-07-22T00:54:22;5.28;;;4.00;;
12567;SDS011;6349;50.904;6.136;2022-07-22T00:56:23;7.35;;;4.53;;
12567;SDS011;6349;50.904;6.136;2022-07-22T00:58:24;6.57;;;3.92;;
12567;SDS011;6349;50.904;6.136;2022-07-22T01:00:25;5.60;;;3.92;;
12567;SDS011;6349;50.904;6.136;2022-07-22T01:02:25;5.82;;;3.58;;
12567;SDS011;6349;50.904;6.136;2022-07-22T01:04:26;6.32;;;3.88;;
12567;SDS011;6349;50.904;6.136;2022-07-22T01:06:30;6.32;;;3.67;;
12567;SDS011;6349;50.904;6.136;2022-07-22T01:08:32;6.22;;;4.07;;
12567;SDS011;6349;50.904;6.136;2022-07-22T01:10:33;5.95;;;4.00;;
12567;SDS011;6349;50.904;6.136;2022-07-22T01:12:34;7.85;;;4.00;;
12567;SDS011;6349;50.904;6.136;2022-07-22T01:14:34;8.18;;;4.03;;
12567;SDS011;6349;50.904;6.136;2022-07-22T01:16:35;6.78;;;3.83;;
12567;SDS011;6349;50.904;6.136;2022-07-22T01:18:36;5.97;;;3.63;;
12567;SDS011;6349;50.904;6.136;2022-07-22T01:20:37;5.47;;;3.75;;
12567;SDS011;6349;50.904;6.136;2022-07-22T01:22:38;4.55;;;3.53;;
12567;SDS011;6349;50.904;6.136;2022-07-22T01:24:39;7.90;;;4.15;;
12567;SDS011;6349;50.904;6.136;2022-07-22T01:26:39;4.97;;;3.42;;
12567;SDS011;6349;50.904;6.136;2022-07-22T01:28:40;5.13;;;3.60;;
12567;SDS011;6349;50.904;6.136;2022-07-22T01:30:41;7.10;;;3.72;;
12567;SDS011;6349;50.904;6.136;2022-07-22T01:32:42;5.25;;;3.65;;
12567;SDS011;6349;50.904;6.136;2022-07-22T01:34:42;5.80;;;3.67;;
12567;SDS011;6349;50.904;6.136;2022-07-22T01:36:43;3.63;;;3.30;;
12567;SDS011;6349;50.904;6.136;2022-07-22T01:38:44;5.20;;;3.17;;
12567;SDS011;6349;50.904;6.136;2022-07-22T01:40:45;6.03;;;3.63;;
12567;SDS011;6349;50.904;6.136;2022-07-22T01:42:46;4.50;;;3.08;;
12567;SDS011;6349;50.904;6.136;2022-07-22T01:44:47;6.15;;;3.58;;
12567;SDS011;6349;50.904;6.136;2022-07-22T01:46:48;5.85;;;3.55;;
12567;SDS011;6349;50.904;6.136;2022-07-22T01:48:52;4.90;;;3.63;;
12567;SDS011;6349;50.904;6.136;2022-07-22T01:50:53;4.82;;;3.40;;
12567;SDS011;6349;50.904;6.136;2022-07-22T01:52:54;4.47;;;3.80;;
12567;SDS011;6349;50.904;6.136;2022-07-22T01:54:55;7.45;;;4.30;;
12567;SDS011;6349;50.904;6.136;2022-07-22T01:56:56;6.30;;;4.03;;
12567;SDS011;6349;50.904;6.136;2022-07-22T01:58:56;5.63;;;3.80;;
12567;SDS011;6349;50.904;6.136;2022-07-22T02:00:57;4.50;;;3.67;;
12567;SDS011;6349;50.904;6.136;2022-07-22T02:02:58;5.70;;;3.80;;
12567;SDS011;6349;50.904;6.136;2022-07-22T02:04:58;5.47;;;3.90;;
12567;SDS011;6349;50.904;6.136;2022-07-22T02:06:59;6.28;;;4.05;;
12567;SDS011;6349;50.904;6.136;2022-07-22T02:09:00;4.93;;;3.47;;
12567;SDS011;6349;50.904;6.136;2022-07-22T02:11:00;4.80;;;3.30;;
12567;SDS011;6349;50.904;6.136;2022-07-22T02:13:02;7.22;;;3.80;;
12567;SDS011;6349;50.904;6.136;2022-07-22T02:15:03;5.22;;;3.50;;
12567;SDS011;6349;50.904;6.136;2022-07-22T02:17:05;6.05;;;3.60;;
12567;SDS011;6349;50.904;6.136;2022-07-22T02:19:05;6.97;;;3.47;;
12567;SDS011;6349;50.904;6.136;2022-07-22T02:21:06;8.73;;;3.70;;
12567;SDS011;6349;50.904;6.136;2022-07-22T02:23:06;6.25;;;3.70;;
12567;SDS011;6349;50.904;6.136;2022-07-22T02:25:07;5.43;;;3.95;;
12567;SDS011;6349;50.904;6.136;2022-07-22T02:27:08;7.80;;;4.00;;
12567;SDS011;6349;50.904;6.136;2022-07-22T02:29:09;5.50;;;3.78;;
12567;SDS011;6349;50.904;6.136;2022-07-22T02:31:09;4.28;;;3.88;;
12567;SDS011;6349;50.904;6.136;2022-07-22T02:33:10;4.55;;;3.60;;
12567;SDS011;6349;50.904;6.136;2022-07-22T02:35:11;5.05;;;4.22;;
12567;SDS011;6349;50.904;6.136;2022-07-22T02:37:12;5.65;;;3.67;;
12567;SDS011;6349;50.904;6.136;2022-07-22T02:39:13;5.87;;;3.90;;
12567;SDS011;6349;50.904;6.136;2022-07-22T02:41:13;7.32;;;3.90;;
12567;SDS011;6349;50.904;6.136;2022-07-22T02:43:14;7.15;;;4.03;;
12567;SDS011;6349;50.904;6.136;2022-07-22T02:45:14;6.85;;;4.00;;
12567;SDS011;6349;50.904;6.136;2022-07-22T02:47:15;6.18;;;3.83;;
12567;SDS011;6349;50.904;6.136;2022-07-22T02:49:16;6.25;;;3.95;;
12567;SDS011;6349;50.904;6.136;2022-07-22T02:51:16;6.95;;;4.18;;
12567;SDS011;6349;50.904;6.136;2022-07-22T02:53:17;5.68;;;3.95;;
12567;SDS011;6349;50.904;6.136;2022-07-22T02:55:18;4.78;;;3.63;;
12567;SDS011;6349;50.904;6.136;2022-07-22T02:57:18;4.63;;;3.38;;
12567;SDS011;6349;50.904;6.136;2022-07-22T02:59:19;5.47;;;3.80;;
12567;SDS011;6349;50.904;6.136;2022-07-22T03:01:20;5.80;;;3.92;;
12567;SDS011;6349;50.904;6.136;2022-07-22T03:03:21;5.90;;;3.92;;
12567;SDS011;6349;50.904;6.136;2022-07-22T03:05:21;6.85;;;4.18;;
12567;SDS011;6349;50.904;6.136;2022-07-22T03:07:22;6.47;;;3.67;;
12567;SDS011;6349;50.904;6.136;2022-07-22T03:09:22;5.00;;;3.60;;
12567;SDS011;6349;50.904;6.136;2022-07-22T03:11:23;6.75;;;4.10;;
12567;SDS011;6349;50.904;6.136;2022-07-22T03:13:24;5.35;;;4.15;;
12567;SDS011;6349;50.904;6.136;2022-07-22T03:15:24;4.53;;;3.45;;
12567;SDS011;6349;50.904;6.136;2022-07-22T03:17:25;4.55;;;3.28;;
12567;SDS011;6349;50.904;6.136;2022-07-22T03:19:26;4.15;;;3.10;;
12567;SDS011;6349;50.904;6.136;2022-07-22T03:21:26;5.25;;;3.28;;
12567;SDS011;6349;50.904;6.136;2022-07-22T03:23:27;3.50;;;3.20;;
12567;SDS011;6349;50.904;6.136;2022-07-22T03:25:27;5.20;;;3.55;;
12567;SDS011;6349;50.904;6.136;2022-07-22T03:27:30;6.60;;;3.13;;
12567;SDS011;6349;50.904;6.136;2022-07-22T03:29:31;5.80;;;4.00;;
12567;SDS011;6349;50.904;6.136;2022-07-22T03:31:31;6.03;;;3.80;;
12567;SDS011;6349;50.904;6.136;2022-07-22T03:33:32;4.50;;;3.65;;
12567;SDS011;6349;50.904;6.136;2022-07-22T03:35:33;5.07;;;3.60;;
12567;SDS011;6349;50.904;6.136;2022-07-22T03:37:33;3.92;;;3.42;;
12567;SDS011;6349;50.904;6.136;2022-07-22T03:39:34;5.18;;;3.50;;
12567;SDS011;6349;50.904;6.136;2022-07-22T03:41:34;5.90;;;3.67;;
12567;SDS011;6349;50.904;6.136;2022-07-22T03:43:35;5.25;;;3.97;;
12567;SDS011;6349;50.904;6.136;2022-07-22T03:45:36;7.15;;;3.90;;
12567;SDS011;6349;50.904;6.136;2022-07-22T03:47:36;5.90;;;4.13;;
12567;SDS011;6349;50.904;6.136;2022-07-22T03:49:37;5.25;;;4.13;;
12567;SDS011;6349;50.904;6.136;2022-07-22T03:51:37;5.07;;;3.95;;
12567;SDS011;6349;50.904;6.136;2022-07-22T03:53:38;5.47;;;3.88;;
12567;SDS011;6349;50.904;6.136;2022-07-22T03:55:39;4.80;;;3.67;;
12567;SDS011;6349;50.904;6.136;2022-07-22T03:57:39;4.20;;;3.35;;
12567;SDS011;6349;50.904;6.136;2022-07-22T03:59:40;5.65;;;3.58;;
12567;SDS011;6349;50.904;6.136;2022-07-22T04:01:41;7.32;;;3.83;;
12567;SDS011;6349;50.904;6.136;2022-07-22T04:03:42;5.75;;;3.35;;
12567;SDS011;6349;50.904;6.136;2022-07-22T04:05:43;5.60;;;3.63;;
12567;SDS011;6349;50.904;6.136;2022-07-22T04:07:43;3.88;;;3.58;;
12567;SDS011;6349;50.904;6.136;2022-07-22T04:09:44;6.13;;;3.78;;
12567;SDS011;6349;50.904;6.136;2022-07-22T04:11:45;4.80;;;3.60;;
12567;SDS011;6349;50.904;6.136;2022-07-22T04:13:46;4.22;;;3.22;;
12567;SDS011;6349;50.904;6.136;2022-07-22T04:15:46;4.40;;;3.58;;
12567;SDS011;6349;50.904;6.136;2022-07-22T04:17:47;4.93;;;3.33;;
12567;SDS011;6349;50.904;6.136;2022-07-22T04:19:48;4.05;;;3.50;;
12567;SDS011;6349;50.904;6.136;2022-07-22T04:21:49;4.15;;;3.35;;
12567;SDS011;6349;50.904;6.136;2022-07-22T04:23:50;4.82;;;3.88;;
12567;SDS011;6349;50.904;6.136;2022-07-22T04:25:50;5.07;;;3.95;;
12567;SDS011;6349;50.904;6.136;2022-07-22T04:27:51;5.53;;;4.25;;
12567;SDS011;6349;50.904;6.136;2022-07-22T04:29:52;5.15;;;3.97;;
12567;SDS011;6349;50.904;6.136;2022-07-22T04:31:53;5.55;;;3.90;;
12567;SDS011;6349;50.904;6.136;2022-07-22T04:33:54;5.65;;;3.80;;
12567;SDS011;6349;50.904;6.136;2022-07-22T04:35:54;4.70;;;3.50;;
12567;SDS011;6349;50.904;6.136;2022-07-22T04:37:55;5.32;;;3.45;;
12567;SDS011;6349;50.904;6.136;2022-07-22T04:39:56;4.75;;;3.40;;
12567;SDS011;6349;50.904;6.136;2022-07-22T04:41:56;5.13;;;3.83;;
12567;SDS011;6349;50.904;6.136;2022-07-22T04:43:57;5.28;;;3.80;;
12567;SDS011;6349;50.904;6.136;2022-07-22T04:45:58;4.05;;;3.40;;
12567;SDS011;6349;50.904;6.136;2022-07-22T04:47:58;5.78;;;3.95;;
12567;SDS011;6349;50.904;6.136;2022-07-22T04:49:59;6.20;;;3.58;;
12567;SDS011;6349;50.904;6.136;2022-07-22T04:52:00;3.97;;;3.15;;
12567;SDS011;6349;50.904;6.136;2022-07-22T04:54:00;5.95;;;3.63;;
12567;SDS011;6349;50.904;6.136;2022-07-22T04:56:01;3.75;;;3.15;;
12567;SDS011;6349;50.904;6.136;2022-07-22T04:58:01;4.82;;;3.63;;
12567;SDS011;6349;50.904;6.136;2022-07-22T05:00:03;6.10;;;3.75;;
12567;SDS011;6349;50.904;6.136;2022-07-22T05:02:04;5.45;;;3.92;;
12567;SDS011;6349;50.904;6.136;2022-07-22T05:04:04;5.57;;;3.72;;
12567;SDS011;6349;50.904;6.136;2022-07-22T05:06:05;5.72;;;3.58;;
12567;SDS011;6349;50.904;6.136;2022-07-22T05:08:06;3.35;;;3.05;;
12567;SDS011;6349;50.904;6.136;2022-07-22T05:10:07;5.50;;;3.58;;
12567;SDS011;6349;50.904;6.136;2022-07-22T05:12:08;4.70;;;3.40;;
12567;SDS011;6349;50.904;6.136;2022-07-22T05:14:09;3.20;;;2.90;;
12567;SDS011;6349;50.904;6.136;2022-07-22T05:16:09;4.13;;;3.25;;
12567;SDS011;6349;50.904;6.136;2022-07-22T05:18:10;4.97;;;2.90;;
12567;SDS011;6349;50.904;6.136;2022-07-22T05:20:10;4.32;;;2.90;;
12567;SDS011;6349;50.904;6.136;2022-07-22T05:22:12;3.72;;;2.88;;
12567;SDS011;6349;50.904;6.136;2022-07-22T05:24:13;3.03;;;2.72;;
12567;SDS011;6349;50.904;6.136;2022-07-22T05:26:13;3.30;;;2.78;;
12567;SDS011;6349;50.904;6.136;2022-07-22T05:28:14;3.35;;;2.67;;
12567;SDS011;6349;50.904;6.136;2022-07-22T05:30:14;3.83;;;2.80;;
12567;SDS011;6349;50.904;6.136;2022-07-22T05:32:15;3.78;;;2.40;;
12567;SDS011;6349;50.904;6.136;2022-07-22T05:34:16;3.75;;;2.90;;
12567;SDS011;6349;50.904;6.136;2022-07-22T05:36:17;3.47;;;2.78;;
12567;SDS011;6349;50.904;6.136;2022-07-22T05:38:18;5.43;;;3.42;;
12567;SDS011;6349;50.904;6.136;2022-07-22T05:40:19;4.85;;;3.22;;
12567;SDS011;6349;50.904;6.136;2022-07-22T05:42:19;5.07;;;3.33;;
12567;SDS011;6349;50.904;6.136;2022-07-22T05:44:20;5.07;;;3.22;;
12567;SDS011;6349;50.904;6.136;2022-07-22T05:46:20;4.45;;;3.47;;
12567;SDS011;6349;50.904;6.136;2022-07-22T05:48:21;4.35;;;3.22;;
12567;SDS011;6349;50.904;6.136;2022-07-22T05:50:22;5.35;;;3.20;;
12567;SDS011;6349;50.904;6.136;2022-07-22T05:52:22;4.22;;;3.00;;
12567;SDS011;6349;50.904;6.136;2022-07-22T05:54:23;4.15;;;3.50;;
12567;SDS011;6349;50.904;6.136;2022-07-22T05:56:23;3.40;;;3.08;;
12567;SDS011;6349;50.904;6.136;2022-07-22T05:58:24;5.05;;;3.50;;
12567;SDS011;6349;50.904;6.136;2022-07-22T06:00:25;3.85;;;3.45;;
12567;SDS011;6349;50.904;6.136;2022-07-22T06:02:25;5.63;;;3.58;;
12567;SDS011;6349;50.904;6.136;2022-07-22T06:04:26;5.50;;;3.50;;
12567;SDS011;6349;50.904;6.136;2022-07-22T06:06:26;7.22;;;3.53;;
12567;SDS011;6349;50.904;6.136;2022-07-22T06:08:27;4.32;;;3.80;;
12567;SDS011;6349;50.904;6.136;2022-07-22T06:10:28;5.95;;;4.07;;
12567;SDS011;6349;50.904;6.136;2022-07-22T06:12:29;4.97;;;3.67;;
12567;SDS011;6349;50.904;6.136;2022-07-22T06:14:30;5.68;;;4.40;;
12567;SDS011;6349;50.904;6.136;2022-07-22T06:16:31;5.28;;;3.75;;
12567;SDS011;6349;50.904;6.136;2022-07-22T06:18:32;4.63;;;3.97;;
12567;SDS011;6349;50.904;6.136;2022-07-22T06:20:33;4.25;;;3.72;;
12567;SDS011;6349;50.904;6.136;2022-07-22T06:22:33;5.38;;;4.28;;
12567;SDS011;6349;50.904;6.136;2022-07-22T06:24:34;5.30;;;4.05;;
12567;SDS011;6349;50.904;6.136;2022-07-22T06:26:35;4.45;;;3.85;;
12567;SDS011;6349;50.904;6.136;2022-07-22T06:28:35;5.03;;;4.10;;
12567;SDS011;6349;50.904;6.136;2022-07-22T06:30:36;4.55;;;4.00;;
12567;SDS011;6349;50.904;6.136;2022-07-22T06:32:37;4.72;;;3.90;;
12567;SDS011;6349;50.904;6.136;2022-07-22T06:34:37;4.40;;;3.50;;
12567;SDS011;6349;50.904;6.136;2022-07-22T06:36:38;5.72;;;3.83;;
12567;SDS011;6349;50.904;6.136;2022-07-22T06:38:38;4.68;;;3.78;;
12567;SDS011;6349;50.904;6.136;2022-07-22T06:40:39;4.55;;;3.85;;
12567;SDS011;6349;50.904;6.136;2022-07-22T06:42:39;6.05;;;3.95;;
12567;SDS011;6349;50.904;6.136;2022-07-22T06:44:40;3.88;;;3.50;;
12567;SDS011;6349;50.904;6.136;2022-07-22T06:46:41;5.90;;;3.78;;
12567;SDS011;6349;50.904;6.136;2022-07-22T06:48:41;4.05;;;3.40;;
12567;SDS011;6349;50.904;6.136;2022-07-22T06:50:43;5.32;;;3.53;;
12567;SDS011;6349;50.904;6.136;2022-07-22T06:52:44;4.60;;;3.78;;
12567;SDS011;6349;50.904;6.136;2022-07-22T06:54:45;4.30;;;3.90;;
12567;SDS011;6349;50.904;6.136;2022-07-22T06:56:45;4.63;;;3.47;;
12567;SDS011;6349;50.904;6.136;2022-07-22T06:58:46;7.10;;;3.70;;
12567;SDS011;6349;50.904;6.136;2022-07-22T07:00:46;4.25;;;3.35;;
12567;SDS011;6349;50.904;6.136;2022-07-22T07:02:47;3.83;;;3.00;;
12567;SDS011;6349;50.904;6.136;2022-07-22T07:04:48;4.80;;;3.55;;
12567;SDS011;6349;50.904;6.136;2022-07-22T07:06:48;4.70;;;3.45;;
12567;SDS011;6349;50.904;6.136;2022-07-22T07:08:49;5.25;;;3.33;;
12567;SDS011;6349;50.904;6.136;2022-07-22T07:10:49;4.25;;;3.08;;
12567;SDS011;6349;50.904;6.136;2022-07-22T07:12:54;4.25;;;3.30;;
12567;SDS011;6349;50.904;6.136;2022-07-22T07:14:56;3.67;;;2.88;;
12567;SDS011;6349;50.904;6.136;2022-07-22T07:16:56;3.85;;;3.20;;
12567;SDS011;6349;50.904;6.136;2022-07-22T07:18:57;3.63;;;3.17;;
12567;SDS011;6349;50.904;6.136;2022-07-22T07:20:57;4.75;;;4.15;;
12567;SDS011;6349;50.904;6.136;2022-07-22T07:23:02;6.65;;;3.65;;
12567;SDS011;6349;50.904;6.136;2022-07-22T07:25:06;5.57;;;3.47;;
12567;SDS011;6349;50.904;6.136;2022-07-22T07:27:08;6.95;;;3.72;;
12567;SDS011;6349;50.904;6.136;2022-07-22T07:29:09;4.72;;;3.33;;
12567;SDS011;6349;50.904;6.136;2022-07-22T07:31:09;5.60;;;3.17;;
12567;SDS011;6349;50.904;6.136;2022-07-22T07:33:11;3.63;;;3.10;;
12567;SDS011;6349;50.904;6.136;2022-07-22T07:35:12;3.45;;;3.15;;
12567;SDS011;6349;50.904;6.136;2022-07-22T07:37:13;4.57;;;3.40;;
12567;SDS011;6349;50.904;6.136;2022-07-22T07:39:13;4.32;;;2.92;;
12567;SDS011;6349;50.904;6.136;2022-07-22T07:41:14;3.53;;;3.13;;
12567;SDS011;6349;50.904;6.136;2022-07-22T07:43:14;4.05;;;2.97;;
12567;SDS011;6349;50.904;6.136;2022-07-22T07:45:15;3.17;;;2.65;;
12567;SDS011;6349;50.904;6.136;2022-07-22T07:47:16;3.53;;;2.83;;
12567;SDS011;6349;50.904;6.136;2022-07-22T07:49:18;3.50;;;3.20;;
12567;SDS011;6349;50.904;6.136;2022-07-22T07:51:19;3.63;;;3.00;;
12567;SDS011;6349;50.904;6.136;2022-07-22T07:53:20;4.05;;;3.03;;
12567;SDS011;6349;50.904;6.136;2022-07-22T07:55:20;3.78;;;2.88;;
12567;SDS011;6349;50.904;6.136;2022-07-22T07:57:21;3.00;;;2.63;;
12567;SDS011;6349;50.904;6.136;2022-07-22T07:59:22;3.88;;;2.53;;
12567;SDS011;6349;50.904;6.136;2022-07-22T08:01:23;3.00;;;2.30;;
12567;SDS011;6349;50.904;6.136;2022-07-22T08:03:23;2.88;;;2.20;;
12567;SDS011;6349;50.904;6.136;2022-07-22T08:05:24;3.30;;;2.60;;
12567;SDS011;6349;50.904;6.136;2022-07-22T08:07:25;2.70;;;2.50;;
12567;SDS011;6349;50.904;6.136;2022-07-22T08:09:26;2.45;;;2.10;;
12567;SDS011;6349;50.904;6.136;2022-07-22T08:11:27;2.47;;;2.10;;
12567;SDS011;6349;50.904;6.136;2022-07-22T08:13:27;3.78;;;2.80;;
12567;SDS011;6349;50.904;6.136;2022-07-22T08:15:28;3.08;;;2.50;;
12567;SDS011;6349;50.904;6.136;2022-07-22T08:17:29;2.60;;;2.40;;
12567;SDS011;6349;50.904;6.136;2022-07-22T08:19:30;4.70;;;3.40;;
12567;SDS011;6349;50.904;6.136;2022-07-22T08:21:30;3.75;;;2.92;;
12567;SDS011;6349;50.904;6.136;2022-07-22T08:23:31;4.38;;;3.60;;
12567;SDS011;6349;50.904;6.136;2022-07-22T08:25:33;4.35;;;3.70;;
12567;SDS011;6349;50.904;6.136;2022-07-22T08:27:34;4.13;;;3.38;;
12567;SDS011;6349;50.904;6.136;2022-07-22T08:29:34;4.43;;;3.53;;
12567;SDS011;6349;50.904;6.136;2022-07-22T08:31:35;4.97;;;3.50;;
12567;SDS011;6349;50.904;6.136;2022-07-22T08:33:36;4.68;;;3.08;;
12567;SDS011;6349;50.904;6.136;2022-07-22T08:35:37;5.28;;;3.35;;
12567;SDS011;6349;50.904;6.136;2022-07-22T08:37:38;2.88;;;2.55;;
12567;SDS011;6349;50.904;6.136;2022-07-22T08:39:39;4.00;;;2.75;;
12567;SDS011;6349;50.904;6.136;2022-07-22T08:41:39;4.10;;;2.90;;
12567;SDS011;6349;50.904;6.136;2022-07-22T08:43:40;3.13;;;2.88;;
12567;SDS011;6349;50.904;6.136;2022-07-22T08:45:42;4.43;;;2.72;;
12567;SDS011;6349;50.904;6.136;2022-07-22T08:47:43;3.22;;;2.92;;
12567;SDS011;6349;50.904;6.136;2022-07-22T08:49:45;4.25;;;2.65;;
12567;SDS011;6349;50.904;6.136;2022-07-22T08:51:45;3.45;;;3.13;;
12567;SDS011;6349;50.904;6.136;2022-07-22T08:53:46;2.85;;;2.55;;
12567;SDS011;6349;50.904;6.136;2022-07-22T08:55:47;5.90;;;3.28;;
12567;SDS011;6349;50.904;6.136;2022-07-22T08:57:48;3.40;;;2.90;;
12567;SDS011;6349;50.904;6.136;2022-07-22T08:59:54;3.05;;;2.78;;
12567;SDS011;6349;50.904;6.136;2022-07-22T09:02:09;4.05;;;2.80;;
12567;SDS011;6349;50.904;6.136;2022-07-22T09:04:11;4.47;;;2.70;;
12567;SDS011;6349;50.904;6.136;2022-07-22T09:06:12;4.15;;;2.78;;
12567;SDS011;6349;50.904;6.136;2022-07-22T09:08:12;4.97;;;2.88;;
12567;SDS011;6349;50.904;6.136;2022-07-22T09:10:15;4.90;;;3.40;;
12567;SDS011;6349;50.904;6.136;2022-07-22T09:12:17;4.07;;;2.75;;
12567;SDS011;6349;50.904;6.136;2022-07-22T09:14:18;3.38;;;2.63;;
12567;SDS011;6349;50.904;6.136;2022-07-22T09:16:37;4.32;;;3.47;;
12567;SDS011;6349;50.904;6.136;2022-07-22T09:18:49;3.92;;;2.90;;
12567;SDS011;6349;50.904;6.136;2022-07-22T09:20:51;3.28;;;2.67;;
12567;SDS011;6349;50.904;6.136;2022-07-22T09:22:59;5.63;;;2.92;;
12567;SDS011;6349;50.904;6.136;2022-07-22T09:27:26;4.55;;;3.30;;
12567;SDS011;6349;50.904;6.136;2022-07-22T09:29:27;3.15;;;2.83;;
12567;SDS011;6349;50.904;6.136;2022-07-22T09:31:29;4.05;;;3.00;;
12567;SDS011;6349;50.904;6.136;2022-07-22T09:33:33;5.35;;;2.83;;
12567;SDS011;6349;50.904;6.136;2022-07-22T09:35:34;3.30;;;3.00;;
12567;SDS011;6349;50.904;6.136;2022-07-22T09:37:35;4.13;;;2.78;;
12567;SDS011;6349;50.904;6.136;2022-07-22T09:39:36;4.72;;;3.10;;
12567;SDS011;6349;50.904;6.136;2022-07-22T09:41:37;3.65;;;3.20;;
12567;SDS011;6349;50.904;6.136;2022-07-22T09:44:19;3.67;;;3.20;;
12567;SDS011;6349;50.904;6.136;2022-07-22T09:46:33;3.13;;;2.80;;
12567;SDS011;6349;50.904;6.136;2022-07-22T09:48:39;6.05;;;3.58;;
12567;SDS011;6349;50.904;6.136;2022-07-22T09:50:40;3.60;;;3.30;;
12567;SDS011;6349;50.904;6.136;2022-07-22T09:52:41;5.07;;;3.00;;
12567;SDS011;6349;50.904;6.136;2022-07-22T09:54:42;3.30;;;3.08;;
12567;SDS011;6349;50.904;6.136;2022-07-22T09:56:44;3.70;;;3.05;;
12567;SDS011;6349;50.904;6.136;2022-07-22T09:58:45;3.38;;;2.97;;
12567;SDS011;6349;50.904;6.136;2022-07-22T10:00:45;2.97;;;2.65;;
12567;SDS011;6349;50.904;6.136;2022-07-22T10:02:48;4.97;;;2.90;;
12567;SDS011;6349;50.904;6.136;2022-07-22T10:04:50;5.05;;;3.03;;
12567;SDS011;6349;50.904;6.136;2022-07-22T10:06:52;3.58;;;3.05;;
12567;SDS011;6349;50.904;6.136;2022-07-22T10:08:56;3.97;;;3.10;;
12567;SDS011;6349;50.904;6.136;2022-07-22T10:11:03;3.20;;;2.90;;
12567;SDS011;6349;50.904;6.136;2022-07-22T10:13:07;4.47;;;3.33;;
12567;SDS011;6349;50.904;6.136;2022-07-22T10:15:08;4.55;;;2.90;;
12567;SDS011;6349;50.904;6.136;2022-07-22T10:17:10;3.72;;;3.35;;
12567;SDS011;6349;50.904;6.136;2022-07-22T10:19:14;4.18;;;3.45;;
12567;SDS011;6349;50.904;6.136;2022-07-22T10:21:15;4.35;;;3.35;;
12567;SDS011;6349;50.904;6.136;2022-07-22T10:23:17;3.95;;;3.55;;
12567;SDS011;6349;50.904;6.136;2022-07-22T10:25:19;3.50;;;3.08;;
12567;SDS011;6349;50.904;6.136;2022-07-22T10:29:51;4.22;;;3.15;;
12567;SDS011;6349;50.904;6.136;2022-07-22T10:34:15;5.60;;;3.40;;
12567;SDS011;6349;50.904;6.136;2022-07-22T10:36:28;3.85;;;3.22;;
12567;SDS011;6349;50.904;6.136;2022-07-22T10:38:34;4.15;;;3.42;;
12567;SDS011;6349;50.904;6.136;2022-07-22T10:45:07;7.15;;;3.83;;
12567;SDS011;6349;50.904;6.136;2022-07-22T10:47:07;3.70;;;3.28;;
12567;SDS011;6349;50.904;6.136;2022-07-22T10:49:08;4.15;;;3.10;;
12567;SDS011;6349;50.904;6.136;2022-07-22T10:51:17;4.75;;;2.88;;
12567;SDS011;6349;50.904;6.136;2022-07-22T10:53:22;4.38;;;3.70;;
12567;SDS011;6349;50.904;6.136;2022-07-22T10:56:03;4.65;;;3.17;;
12567;SDS011;6349;50.904;6.136;2022-07-22T10:58:39;4.05;;;3.67;;
12567;SDS011;6349;50.904;6.136;2022-07-22T11:00:33;3.42;;;3.13;;
12567;SDS011;6349;50.904;6.136;2022-07-22T11:02:34;3.40;;;3.10;;
12567;SDS011;6349;50.904;6.136;2022-07-22T11:04:36;3.95;;;3.40;;
12567;SDS011;6349;50.904;6.136;2022-07-22T11:06:38;3.67;;;3.25;;
12567;SDS011;6349;50.904;6.136;2022-07-22T11:08:39;3.35;;;3.05;;
12567;SDS011;6349;50.904;6.136;2022-07-22T11:10:46;3.83;;;3.42;;
12567;SDS011;6349;50.904;6.136;2022-07-22T11:12:49;5.13;;;3.30;;
12567;SDS011;6349;50.904;6.136;2022-07-22T11:14:50;3.22;;;2.92;;
12567;SDS011;6349;50.904;6.136;2022-07-22T11:16:51;2.90;;;2.60;;
12567;SDS011;6349;50.904;6.136;2022-07-22T11:18:54;5.35;;;3.42;;
12567;SDS011;6349;50.904;6.136;2022-07-22T11:20:55;3.15;;;2.85;;
12567;SDS011;6349;50.904;6.136;2022-07-22T11:22:56;3.58;;;2.90;;
12567;SDS011;6349;50.904;6.136;2022-07-22T11:24:56;3.10;;;2.80;;
12567;SDS011;6349;50.904;6.136;2022-07-22T11:26:59;3.38;;;2.88;;
12567;SDS011;6349;50.904;6.136;2022-07-22T11:29:01;3.88;;;3.28;;
12567;SDS011;6349;50.904;6.136;2022-07-22T11:31:06;4.07;;;3.08;;
12567;SDS011;6349;50.904;6.136;2022-07-22T11:33:07;3.28;;;2.97;;
12567;SDS011;6349;50.904;6.136;2022-07-22T11:35:10;3.60;;;3.10;;
12567;SDS011;6349;50.904;6.136;2022-07-22T11:37:12;3.50;;;3.20;;
12567;SDS011;6349;50.904;6.136;2022-07-22T11:39:18;3.70;;;3.28;;
12567;SDS011;6349;50.904;6.136;2022-07-22T11:41:21;3.60;;;2.88;;
12567;SDS011;6349;50.904;6.136;2022-07-22T11:43:21;2.75;;;2.53;;
12567;SDS011;6349;50.904;6.136;2022-07-22T11:45:22;3.90;;;3.30;;
12567;SDS011;6349;50.904;6.136;2022-07-22T11:47:23;4.10;;;2.90;;
12567;SDS011;6349;50.904;6.136;2022-07-22T11:49:23;3.20;;;2.90;;
12567;SDS011;6349;50.904;6.136;2022-07-22T11:51:29;2.92;;;2.72;;
12567;SDS011;6349;50.904;6.136;2022-07-22T11:53:31;3.90;;;2.60;;
12567;SDS011;6349;50.904;6.136;2022-07-22T11:55:32;3.50;;;3.20;;
12567;SDS011;6349;50.904;6.136;2022-07-22T11:57:39;3.15;;;2.30;;
12567;SDS011;6349;50.904;6.136;2022-07-22T11:59:47;4.60;;;2.70;;
12567;SDS011;6349;50.904;6.136;2022-07-22T12:01:48;4.40;;;3.15;;
12567;SDS011;6349;50.904;6.136;2022-07-22T12:03:50;4.00;;;2.80;;
12567;SDS011;6349;50.904;6.136;2022-07-22T12:05:59;3.60;;;2.40;;
12567;SDS011;6349;50.904;6.136;2022-07-22T12:08:00;3.70;;;3.28;;
12567;SDS011;6349;50.904;6.136;2022-07-22T12:10:02;3.40;;;3.10;;
12567;SDS011;6349;50.904;6.136;2022-07-22T12:12:03;4.65;;;3.50;;
12567;SDS011;6349;50.904;6.136;2022-07-22T12:14:06;3.47;;;3.15;;
12567;SDS011;6349;50.904;6.136;2022-07-22T12:16:21;3.75;;;2.90;;
12567;SDS011;6349;50.904;6.136;2022-07-22T12:18:25;3.92;;;2.72;;
12567;SDS011;6349;50.904;6.136;2022-07-22T12:20:26;3.00;;;2.80;;
12567;SDS011;6349;50.904;6.136;2022-07-22T12:22:27;3.33;;;3.03;;
12567;SDS011;6349;50.904;6.136;2022-07-22T12:24:43;4.15;;;3.50;;
12567;SDS011;6349;50.904;6.136;2022-07-22T12:26:46;4.35;;;3.00;;
12567;SDS011;6349;50.904;6.136;2022-07-22T12:28:48;3.22;;;3.00;;
12567;SDS011;6349;50.904;6.136;2022-07-22T12:30:49;3.30;;;2.90;;
12567;SDS011;6349;50.904;6.136;2022-07-22T12:32:51;3.00;;;2.80;;
12567;SDS011;6349;50.904;6.136;2022-07-22T12:36:59;3.40;;;3.10;;
12567;SDS011;6349;50.904;6.136;2022-07-22T12:39:15;3.88;;;3.50;;